sensor_id;sensor_type;location;lat;lon;timestamp;temperature;humidity
47226;DHT22;32965;64.142;-21.912;2022-12-07T00:01:50;6.00;97.40
47226;DHT22;32965;64.142;-21.912;2022-12-07T00:04:12;6.00;97.30
47226;DHT22;32965;64.142;-21.912;2022-12-07T00:06:41;6.00;97.20
47226;DHT22;32965;64.142;-21.912;2022-12-07T00:09:10;6.00;97.20
47226;DHT22;32965;64.142;-21.912;2022-12-07T00:11:37;6.00;97.20
47226;DHT22;32965;64.142;-21.912;2022-12-07T00:14:05;5.90;97.20
47226;DHT22;32965;64.142;-21.912;2022-12-07T00:16:33;5.90;97.30
47226;DHT22;32965;64.142;-21.912;2022-12-07T00:19:00;5.80;97.30
47226;DHT22;32965;64.142;-21.912;2022-12-07T00:21:28;5.80;97.30
47226;DHT22;32965;64.142;-21.912;2022-12-07T00:23:55;5.80;97.20
47226;DHT22;32965;64.142;-21.912;2022-12-07T00:26:27;5.60;97.10
47226;DHT22;32965;64.142;-21.912;2022-12-07T00:28:55;5.60;97.00
47226;DHT22;32965;64.142;-21.912;2022-12-07T00:31:23;5.50;97.00
47226;DHT22;32965;64.142;-21.912;2022-12-07T00:33:49;5.40;96.90
47226;DHT22;32965;64.142;-21.912;2022-12-07T00:36:18;5.40;96.90
47226;DHT22;32965;64.142;-21.912;2022-12-07T00:38:44;5.40;96.80
47226;DHT22;32965;64.142;-21.912;2022-12-07T00:41:15;5.30;96.70
47226;DHT22;32965;64.142;-21.912;2022-12-07T00:43:43;5.30;96.60
47226;DHT22;32965;64.142;-21.912;2022-12-07T00:46:10;5.20;96.60
47226;DHT22;32965;64.142;-21.912;2022-12-07T00:48:36;5.20;96.50
47226;DHT22;32965;64.142;-21.912;2022-12-07T00:51:02;5.10;96.40
47226;DHT22;32965;64.142;-21.912;2022-12-07T00:53:29;5.10;96.40
47226;DHT22;32965;64.142;-21.912;2022-12-07T00:55:55;5.10;96.40
47226;DHT22;32965;64.142;-21.912;2022-12-07T00:58:24;5.10;96.40
47226;DHT22;32965;64.142;-21.912;2022-12-07T01:00:50;5.00;96.40
47226;DHT22;32965;64.142;-21.912;2022-12-07T01:03:16;5.00;96.40
47226;DHT22;32965;64.142;-21.912;2022-12-07T01:05:52;4.90;96.40
47226;DHT22;32965;64.142;-21.912;2022-12-07T01:08:18;4.90;96.40
47226;DHT22;32965;64.142;-21.912;2022-12-07T01:10:44;4.90;96.50
47226;DHT22;32965;64.142;-21.912;2022-12-07T01:13:10;4.90;96.50
47226;DHT22;32965;64.142;-21.912;2022-12-07T01:15:40;4.80;96.50
47226;DHT22;32965;64.142;-21.912;2022-12-07T01:18:05;4.80;96.50
47226;DHT22;32965;64.142;-21.912;2022-12-07T01:20:31;4.70;96.60
47226;DHT22;32965;64.142;-21.912;2022-12-07T01:22:57;4.70;96.50
47226;DHT22;32965;64.142;-21.912;2022-12-07T01:25:23;4.70;96.50
47226;DHT22;32965;64.142;-21.912;2022-12-07T01:27:48;4.60;96.50
47226;DHT22;32965;64.142;-21.912;2022-12-07T01:30:14;4.60;96.50
47226;DHT22;32965;64.142;-21.912;2022-12-07T01:32:40;4.50;96.50
47226;DHT22;32965;64.142;-21.912;2022-12-07T01:35:05;4.50;96.50
47226;DHT22;32965;64.142;-21.912;2022-12-07T01:37:38;4.50;96.50
47226;DHT22;32965;64.142;-21.912;2022-12-07T01:40:06;4.50;96.60
47226;DHT22;32965;64.142;-21.912;2022-12-07T01:42:32;4.50;96.60
47226;DHT22;32965;64.142;-21.912;2022-12-07T01:47:45;4.40;96.50
47226;DHT22;32965;64.142;-21.912;2022-12-07T01:50:12;4.40;96.60
47226;DHT22;32965;64.142;-21.912;2022-12-07T01:52:40;4.40;96.60
47226;DHT22;32965;64.142;-21.912;2022-12-07T01:55:12;4.40;96.60
47226;DHT22;32965;64.142;-21.912;2022-12-07T01:57:42;4.40;96.70
47226;DHT22;32965;64.142;-21.912;2022-12-07T02:00:09;4.40;96.70
47226;DHT22;32965;64.142;-21.912;2022-12-07T02:02:41;4.40;96.70
47226;DHT22;32965;64.142;-21.912;2022-12-07T02:05:07;4.40;96.70
47226;DHT22;32965;64.142;-21.912;2022-12-07T02:07:36;4.40;96.80
47226;DHT22;32965;64.142;-21.912;2022-12-07T02:10:17;4.40;96.80
47226;DHT22;32965;64.142;-21.912;2022-12-07T02:12:46;4.40;96.80
47226;DHT22;32965;64.142;-21.912;2022-12-07T02:15:12;4.30;96.90
47226;DHT22;32965;64.142;-21.912;2022-12-07T02:17:53;4.30;96.80
47226;DHT22;32965;64.142;-21.912;2022-12-07T02:20:27;4.30;96.90
47226;DHT22;32965;64.142;-21.912;2022-12-07T02:28:52;4.20;96.90
47226;DHT22;32965;64.142;-21.912;2022-12-07T02:31:27;4.30;96.90
47226;DHT22;32965;64.142;-21.912;2022-12-07T02:34:04;4.20;96.90
47226;DHT22;32965;64.142;-21.912;2022-12-07T02:36:41;4.20;96.90
47226;DHT22;32965;64.142;-21.912;2022-12-07T02:39:17;4.20;96.90
47226;DHT22;32965;64.142;-21.912;2022-12-07T02:42:09;4.30;96.90
47226;DHT22;32965;64.142;-21.912;2022-12-07T02:44:36;4.20;96.90
47226;DHT22;32965;64.142;-21.912;2022-12-07T02:47:09;4.20;96.90
47226;DHT22;32965;64.142;-21.912;2022-12-07T02:49:37;4.20;96.80
47226;DHT22;32965;64.142;-21.912;2022-12-07T02:52:04;4.20;96.80
47226;DHT22;32965;64.142;-21.912;2022-12-07T02:54:30;4.30;96.80
47226;DHT22;32965;64.142;-21.912;2022-12-07T02:57:39;4.20;96.70
47226;DHT22;32965;64.142;-21.912;2022-12-07T03:02:50;4.20;96.60
47226;DHT22;32965;64.142;-21.912;2022-12-07T03:08:23;4.20;96.50
47226;DHT22;32965;64.142;-21.912;2022-12-07T03:10:54;4.20;96.50
47226;DHT22;32965;64.142;-21.912;2022-12-07T03:16:28;4.30;96.40
47226;DHT22;32965;64.142;-21.912;2022-12-07T03:21:41;4.30;96.30
47226;DHT22;32965;64.142;-21.912;2022-12-07T03:24:33;4.30;96.20
47226;DHT22;32965;64.142;-21.912;2022-12-07T03:27:11;4.30;96.10
47226;DHT22;32965;64.142;-21.912;2022-12-07T03:37:40;4.30;95.80
47226;DHT22;32965;64.142;-21.912;2022-12-07T03:40:26;4.30;95.70
47226;DHT22;32965;64.142;-21.912;2022-12-07T03:42:54;4.30;95.60
47226;DHT22;32965;64.142;-21.912;2022-12-07T03:45:24;4.20;95.60
47226;DHT22;32965;64.142;-21.912;2022-12-07T03:50:50;4.30;95.50
47226;DHT22;32965;64.142;-21.912;2022-12-07T03:53:18;4.30;95.50
47226;DHT22;32965;64.142;-21.912;2022-12-07T03:55:46;4.20;95.40
47226;DHT22;32965;64.142;-21.912;2022-12-07T03:58:15;4.30;95.40
47226;DHT22;32965;64.142;-21.912;2022-12-07T04:00:43;4.30;95.30
47226;DHT22;32965;64.142;-21.912;2022-12-07T04:03:10;4.20;95.20
47226;DHT22;32965;64.142;-21.912;2022-12-07T04:05:36;4.20;95.20
47226;DHT22;32965;64.142;-21.912;2022-12-07T04:08:02;4.20;95.10
47226;DHT22;32965;64.142;-21.912;2022-12-07T04:10:28;4.20;95.10
47226;DHT22;32965;64.142;-21.912;2022-12-07T04:12:54;4.20;95.10
47226;DHT22;32965;64.142;-21.912;2022-12-07T04:15:20;4.20;95.00
47226;DHT22;32965;64.142;-21.912;2022-12-07T04:17:46;4.20;95.00
47226;DHT22;32965;64.142;-21.912;2022-12-07T04:20:12;4.10;94.90
47226;DHT22;32965;64.142;-21.912;2022-12-07T04:22:38;4.10;94.90
47226;DHT22;32965;64.142;-21.912;2022-12-07T04:25:04;4.10;94.80
47226;DHT22;32965;64.142;-21.912;2022-12-07T04:27:29;4.10;94.80
47226;DHT22;32965;64.142;-21.912;2022-12-07T04:29:55;4.10;94.80
47226;DHT22;32965;64.142;-21.912;2022-12-07T04:32:22;4.10;94.70
47226;DHT22;32965;64.142;-21.912;2022-12-07T04:34:48;4.20;94.70
47226;DHT22;32965;64.142;-21.912;2022-12-07T04:37:13;4.10;94.60
47226;DHT22;32965;64.142;-21.912;2022-12-07T04:39:39;4.20;94.60
47226;DHT22;32965;64.142;-21.912;2022-12-07T04:42:05;4.10;94.60
47226;DHT22;32965;64.142;-21.912;2022-12-07T04:44:31;4.20;94.60
47226;DHT22;32965;64.142;-21.912;2022-12-07T04:46:57;4.20;94.60
47226;DHT22;32965;64.142;-21.912;2022-12-07T04:49:24;4.20;94.60
47226;DHT22;32965;64.142;-21.912;2022-12-07T04:51:50;4.20;94.50
47226;DHT22;32965;64.142;-21.912;2022-12-07T04:54:16;4.20;94.40
47226;DHT22;32965;64.142;-21.912;2022-12-07T04:56:44;4.20;94.40
47226;DHT22;32965;64.142;-21.912;2022-12-07T04:59:11;4.20;94.40
47226;DHT22;32965;64.142;-21.912;2022-12-07T05:01:37;4.20;94.40
47226;DHT22;32965;64.142;-21.912;2022-12-07T05:04:03;4.20;94.30
47226;DHT22;32965;64.142;-21.912;2022-12-07T05:06:29;4.20;94.30
47226;DHT22;32965;64.142;-21.912;2022-12-07T05:08:55;4.20;94.30
47226;DHT22;32965;64.142;-21.912;2022-12-07T05:11:20;4.20;94.30
47226;DHT22;32965;64.142;-21.912;2022-12-07T05:14:10;4.20;94.50
47226;DHT22;32965;64.142;-21.912;2022-12-07T05:16:36;4.20;94.20
47226;DHT22;32965;64.142;-21.912;2022-12-07T05:19:03;4.10;94.20
47226;DHT22;32965;64.142;-21.912;2022-12-07T05:21:28;4.20;94.20
47226;DHT22;32965;64.142;-21.912;2022-12-07T05:23:54;4.20;94.20
47226;DHT22;32965;64.142;-21.912;2022-12-07T05:26:21;4.20;94.10
47226;DHT22;32965;64.142;-21.912;2022-12-07T05:28:53;4.10;94.00
47226;DHT22;32965;64.142;-21.912;2022-12-07T05:31:20;4.20;94.00
47226;DHT22;32965;64.142;-21.912;2022-12-07T05:33:46;4.20;94.20
47226;DHT22;32965;64.142;-21.912;2022-12-07T05:36:11;4.10;93.90
47226;DHT22;32965;64.142;-21.912;2022-12-07T05:38:37;4.20;93.90
47226;DHT22;32965;64.142;-21.912;2022-12-07T05:41:05;4.20;93.80
47226;DHT22;32965;64.142;-21.912;2022-12-07T05:43:31;4.20;93.70
47226;DHT22;32965;64.142;-21.912;2022-12-07T05:45:58;4.10;93.70
47226;DHT22;32965;64.142;-21.912;2022-12-07T05:48:24;4.10;93.60
47226;DHT22;32965;64.142;-21.912;2022-12-07T05:50:51;4.10;93.60
47226;DHT22;32965;64.142;-21.912;2022-12-07T05:53:17;4.10;93.50
47226;DHT22;32965;64.142;-21.912;2022-12-07T05:55:43;4.10;93.50
47226;DHT22;32965;64.142;-21.912;2022-12-07T05:58:09;4.10;93.40
47226;DHT22;32965;64.142;-21.912;2022-12-07T06:00:57;4.10;93.40
47226;DHT22;32965;64.142;-21.912;2022-12-07T06:03:22;4.10;93.40
47226;DHT22;32965;64.142;-21.912;2022-12-07T06:05:48;4.10;93.50
47226;DHT22;32965;64.142;-21.912;2022-12-07T06:08:14;4.00;93.40
47226;DHT22;32965;64.142;-21.912;2022-12-07T06:10:42;4.10;93.40
47226;DHT22;32965;64.142;-21.912;2022-12-07T06:13:08;4.00;93.40
47226;DHT22;32965;64.142;-21.912;2022-12-07T06:15:37;4.00;93.30
47226;DHT22;32965;64.142;-21.912;2022-12-07T06:18:03;4.00;93.30
47226;DHT22;32965;64.142;-21.912;2022-12-07T06:20:29;3.90;93.30
47226;DHT22;32965;64.142;-21.912;2022-12-07T06:22:55;3.90;93.30
47226;DHT22;32965;64.142;-21.912;2022-12-07T06:25:20;3.90;93.30
47226;DHT22;32965;64.142;-21.912;2022-12-07T06:27:46;3.90;93.30
47226;DHT22;32965;64.142;-21.912;2022-12-07T06:30:12;3.90;93.30
47226;DHT22;32965;64.142;-21.912;2022-12-07T06:32:37;3.90;93.30
47226;DHT22;32965;64.142;-21.912;2022-12-07T06:35:04;3.90;93.30
47226;DHT22;32965;64.142;-21.912;2022-12-07T06:37:30;3.80;93.30
47226;DHT22;32965;64.142;-21.912;2022-12-07T06:39:56;3.80;93.30
47226;DHT22;32965;64.142;-21.912;2022-12-07T06:42:21;3.80;93.30
47226;DHT22;32965;64.142;-21.912;2022-12-07T06:44:47;3.70;93.20
47226;DHT22;32965;64.142;-21.912;2022-12-07T06:47:13;3.70;93.20
47226;DHT22;32965;64.142;-21.912;2022-12-07T06:49:38;3.70;93.20
47226;DHT22;32965;64.142;-21.912;2022-12-07T06:52:04;3.70;93.20
47226;DHT22;32965;64.142;-21.912;2022-12-07T06:54:31;3.60;93.20
47226;DHT22;32965;64.142;-21.912;2022-12-07T06:56:57;3.60;93.30
47226;DHT22;32965;64.142;-21.912;2022-12-07T06:59:22;3.60;93.30
47226;DHT22;32965;64.142;-21.912;2022-12-07T07:01:48;3.60;93.40
47226;DHT22;32965;64.142;-21.912;2022-12-07T07:04:14;3.60;93.40
47226;DHT22;32965;64.142;-21.912;2022-12-07T07:06:40;3.50;93.30
47226;DHT22;32965;64.142;-21.912;2022-12-07T07:09:05;3.50;93.30
47226;DHT22;32965;64.142;-21.912;2022-12-07T07:11:31;3.50;93.40
47226;DHT22;32965;64.142;-21.912;2022-12-07T07:13:57;3.40;93.40
47226;DHT22;32965;64.142;-21.912;2022-12-07T07:16:30;3.40;93.50
47226;DHT22;32965;64.142;-21.912;2022-12-07T07:18:57;3.40;93.60
47226;DHT22;32965;64.142;-21.912;2022-12-07T07:21:22;3.40;93.60
47226;DHT22;32965;64.142;-21.912;2022-12-07T07:23:48;3.40;93.70
47226;DHT22;32965;64.142;-21.912;2022-12-07T07:26:14;3.40;93.70
47226;DHT22;32965;64.142;-21.912;2022-12-07T07:28:39;3.30;93.70
47226;DHT22;32965;64.142;-21.912;2022-12-07T07:31:05;3.30;93.70
47226;DHT22;32965;64.142;-21.912;2022-12-07T07:33:31;3.30;93.70
47226;DHT22;32965;64.142;-21.912;2022-12-07T07:35:56;3.30;93.70
47226;DHT22;32965;64.142;-21.912;2022-12-07T07:38:22;3.30;93.70
47226;DHT22;32965;64.142;-21.912;2022-12-07T07:40:48;3.30;93.70
47226;DHT22;32965;64.142;-21.912;2022-12-07T07:43:14;3.20;93.70
47226;DHT22;32965;64.142;-21.912;2022-12-07T07:45:39;3.20;93.70
47226;DHT22;32965;64.142;-21.912;2022-12-07T07:48:06;3.20;93.70
47226;DHT22;32965;64.142;-21.912;2022-12-07T07:50:32;3.20;93.70
47226;DHT22;32965;64.142;-21.912;2022-12-07T07:52:57;3.10;93.60
47226;DHT22;32965;64.142;-21.912;2022-12-07T07:55:24;3.10;93.60
47226;DHT22;32965;64.142;-21.912;2022-12-07T07:57:49;3.10;93.50
47226;DHT22;32965;64.142;-21.912;2022-12-07T08:00:16;3.00;93.50
47226;DHT22;32965;64.142;-21.912;2022-12-07T08:02:42;3.00;93.50
47226;DHT22;32965;64.142;-21.912;2022-12-07T08:05:08;3.00;93.50
47226;DHT22;32965;64.142;-21.912;2022-12-07T08:07:35;3.00;93.50
47226;DHT22;32965;64.142;-21.912;2022-12-07T08:10:00;2.90;93.50
47226;DHT22;32965;64.142;-21.912;2022-12-07T08:12:26;2.90;93.50
47226;DHT22;32965;64.142;-21.912;2022-12-07T08:14:52;2.90;93.50
47226;DHT22;32965;64.142;-21.912;2022-12-07T08:17:17;2.90;93.50
47226;DHT22;32965;64.142;-21.912;2022-12-07T08:19:43;2.80;93.50
47226;DHT22;32965;64.142;-21.912;2022-12-07T08:22:09;2.80;93.50
47226;DHT22;32965;64.142;-21.912;2022-12-07T08:24:35;2.80;93.50
47226;DHT22;32965;64.142;-21.912;2022-12-07T08:27:01;2.80;93.60
47226;DHT22;32965;64.142;-21.912;2022-12-07T08:29:27;2.80;93.60
47226;DHT22;32965;64.142;-21.912;2022-12-07T08:31:53;2.80;93.60
47226;DHT22;32965;64.142;-21.912;2022-12-07T08:34:19;2.80;93.60
47226;DHT22;32965;64.142;-21.912;2022-12-07T08:36:44;2.80;93.60
47226;DHT22;32965;64.142;-21.912;2022-12-07T08:39:10;2.80;93.60
47226;DHT22;32965;64.142;-21.912;2022-12-07T08:41:36;2.80;93.60
47226;DHT22;32965;64.142;-21.912;2022-12-07T08:44:02;2.80;93.60
47226;DHT22;32965;64.142;-21.912;2022-12-07T08:46:35;2.80;93.60
47226;DHT22;32965;64.142;-21.912;2022-12-07T08:49:20;2.70;93.50
47226;DHT22;32965;64.142;-21.912;2022-12-07T08:51:47;2.70;93.50
47226;DHT22;32965;64.142;-21.912;2022-12-07T08:54:16;2.70;93.50
47226;DHT22;32965;64.142;-21.912;2022-12-07T08:56:42;2.70;93.50
47226;DHT22;32965;64.142;-21.912;2022-12-07T08:59:09;2.60;93.50
47226;DHT22;32965;64.142;-21.912;2022-12-07T09:01:35;2.60;93.40
47226;DHT22;32965;64.142;-21.912;2022-12-07T09:04:00;2.60;93.40
47226;DHT22;32965;64.142;-21.912;2022-12-07T09:06:26;2.60;93.30
47226;DHT22;32965;64.142;-21.912;2022-12-07T09:08:55;2.50;93.30
47226;DHT22;32965;64.142;-21.912;2022-12-07T09:11:22;2.50;93.30
47226;DHT22;32965;64.142;-21.912;2022-12-07T09:13:48;2.50;93.20
47226;DHT22;32965;64.142;-21.912;2022-12-07T09:16:14;2.50;93.20
47226;DHT22;32965;64.142;-21.912;2022-12-07T09:18:40;2.50;93.20
47226;DHT22;32965;64.142;-21.912;2022-12-07T09:21:05;2.40;93.10
47226;DHT22;32965;64.142;-21.912;2022-12-07T09:23:31;2.40;93.10
47226;DHT22;32965;64.142;-21.912;2022-12-07T09:26:04;2.40;93.10
47226;DHT22;32965;64.142;-21.912;2022-12-07T09:28:31;2.40;93.10
47226;DHT22;32965;64.142;-21.912;2022-12-07T09:30:56;2.30;93.00
47226;DHT22;32965;64.142;-21.912;2022-12-07T09:33:22;2.30;93.00
47226;DHT22;32965;64.142;-21.912;2022-12-07T09:35:49;2.30;93.00
47226;DHT22;32965;64.142;-21.912;2022-12-07T09:38:16;2.30;93.00
47226;DHT22;32965;64.142;-21.912;2022-12-07T09:40:42;2.30;93.00
47226;DHT22;32965;64.142;-21.912;2022-12-07T09:43:18;2.20;92.90
47226;DHT22;32965;64.142;-21.912;2022-12-07T09:45:50;2.30;92.90
47226;DHT22;32965;64.142;-21.912;2022-12-07T09:48:18;2.20;92.90
47226;DHT22;32965;64.142;-21.912;2022-12-07T09:50:46;2.20;92.90
47226;DHT22;32965;64.142;-21.912;2022-12-07T09:53:24;2.20;92.90
47226;DHT22;32965;64.142;-21.912;2022-12-07T09:55:51;2.20;92.80
47226;DHT22;32965;64.142;-21.912;2022-12-07T09:58:27;2.20;92.80
47226;DHT22;32965;64.142;-21.912;2022-12-07T10:00:57;2.20;92.80
47226;DHT22;32965;64.142;-21.912;2022-12-07T10:03:26;2.10;92.80
47226;DHT22;32965;64.142;-21.912;2022-12-07T10:05:52;2.10;92.80
47226;DHT22;32965;64.142;-21.912;2022-12-07T10:08:18;2.10;92.80
47226;DHT22;32965;64.142;-21.912;2022-12-07T10:10:45;2.10;92.80
47226;DHT22;32965;64.142;-21.912;2022-12-07T10:13:14;2.10;92.90
47226;DHT22;32965;64.142;-21.912;2022-12-07T10:15:52;2.10;92.90
47226;DHT22;32965;64.142;-21.912;2022-12-07T10:18:20;2.20;92.90
47226;DHT22;32965;64.142;-21.912;2022-12-07T10:20:47;2.20;92.90
47226;DHT22;32965;64.142;-21.912;2022-12-07T10:23:17;2.20;92.90
47226;DHT22;32965;64.142;-21.912;2022-12-07T10:25:44;2.20;92.80
47226;DHT22;32965;64.142;-21.912;2022-12-07T10:28:12;2.20;92.80
47226;DHT22;32965;64.142;-21.912;2022-12-07T10:33:31;2.20;92.70
47226;DHT22;32965;64.142;-21.912;2022-12-07T10:35:57;2.20;92.70
47226;DHT22;32965;64.142;-21.912;2022-12-07T10:38:25;2.20;92.70
47226;DHT22;32965;64.142;-21.912;2022-12-07T10:41:12;2.30;92.70
47226;DHT22;32965;64.142;-21.912;2022-12-07T10:43:47;2.30;92.60
47226;DHT22;32965;64.142;-21.912;2022-12-07T10:51:59;2.30;92.50
47226;DHT22;32965;64.142;-21.912;2022-12-07T10:54:37;2.30;92.50
47226;DHT22;32965;64.142;-21.912;2022-12-07T10:57:40;2.20;92.60
47226;DHT22;32965;64.142;-21.912;2022-12-07T11:02:45;2.20;92.30
47226;DHT22;32965;64.142;-21.912;2022-12-07T11:13:37;2.20;92.10
47226;DHT22;32965;64.142;-21.912;2022-12-07T11:22:03;2.20;92.00
47226;DHT22;32965;64.142;-21.912;2022-12-07T11:30:12;2.20;91.90
47226;DHT22;32965;64.142;-21.912;2022-12-07T11:38:15;2.20;91.80
47226;DHT22;32965;64.142;-21.912;2022-12-07T11:40:46;2.20;91.80
47226;DHT22;32965;64.142;-21.912;2022-12-07T11:46:00;2.20;91.80
47226;DHT22;32965;64.142;-21.912;2022-12-07T11:48:40;2.20;91.70
47226;DHT22;32965;64.142;-21.912;2022-12-07T11:51:10;2.20;91.70
47226;DHT22;32965;64.142;-21.912;2022-12-07T11:54:26;2.20;91.70
47226;DHT22;32965;64.142;-21.912;2022-12-07T11:56:34;2.20;91.60
47226;DHT22;32965;64.142;-21.912;2022-12-07T12:02:03;2.20;91.50
47226;DHT22;32965;64.142;-21.912;2022-12-07T12:04:52;2.30;91.60
47226;DHT22;32965;64.142;-21.912;2022-12-07T12:07:23;2.30;91.50
47226;DHT22;32965;64.142;-21.912;2022-12-07T12:21:56;2.30;91.50
47226;DHT22;32965;64.142;-21.912;2022-12-07T12:24:26;2.30;91.50
47226;DHT22;32965;64.142;-21.912;2022-12-07T12:27:05;2.30;91.50
47226;DHT22;32965;64.142;-21.912;2022-12-07T12:29:37;2.40;91.40
47226;DHT22;32965;64.142;-21.912;2022-12-07T12:32:22;2.40;91.40
47226;DHT22;32965;64.142;-21.912;2022-12-07T12:37:55;2.50;91.30
47226;DHT22;32965;64.142;-21.912;2022-12-07T12:42:54;2.50;91.30
47226;DHT22;32965;64.142;-21.912;2022-12-07T12:45:24;2.50;91.20
47226;DHT22;32965;64.142;-21.912;2022-12-07T12:48:03;2.50;91.20
47226;DHT22;32965;64.142;-21.912;2022-12-07T12:50:37;2.60;91.20
47226;DHT22;32965;64.142;-21.912;2022-12-07T12:53:23;2.60;91.20
47226;DHT22;32965;64.142;-21.912;2022-12-07T12:56:15;2.60;91.10
47226;DHT22;32965;64.142;-21.912;2022-12-07T12:58:46;2.60;91.00
47226;DHT22;32965;64.142;-21.912;2022-12-07T13:04:01;2.60;91.10
47226;DHT22;32965;64.142;-21.912;2022-12-07T13:08:55;2.60;90.90
47226;DHT22;32965;64.142;-21.912;2022-12-07T13:17:02;2.70;90.80
47226;DHT22;32965;64.142;-21.912;2022-12-07T13:25:07;2.70;90.70
47226;DHT22;32965;64.142;-21.912;2022-12-07T13:27:37;2.70;90.70
47226;DHT22;32965;64.142;-21.912;2022-12-07T13:30:19;2.70;90.70
47226;DHT22;32965;64.142;-21.912;2022-12-07T13:32:55;2.80;90.70
47226;DHT22;32965;64.142;-21.912;2022-12-07T13:37:59;2.80;90.60
47226;DHT22;32965;64.142;-21.912;2022-12-07T13:40:26;2.90;90.60
47226;DHT22;32965;64.142;-21.912;2022-12-07T13:43:03;2.90;90.60
47226;DHT22;32965;64.142;-21.912;2022-12-07T13:45:32;3.00;90.50
47226;DHT22;32965;64.142;-21.912;2022-12-07T13:50:55;3.00;90.40
47226;DHT22;32965;64.142;-21.912;2022-12-07T13:53:22;3.00;90.40
47226;DHT22;32965;64.142;-21.912;2022-12-07T13:55:48;3.00;90.30
47226;DHT22;32965;64.142;-21.912;2022-12-07T13:58:14;3.10;90.30
47226;DHT22;32965;64.142;-21.912;2022-12-07T14:00:41;3.10;90.20
47226;DHT22;32965;64.142;-21.912;2022-12-07T14:05:41;3.20;90.10
47226;DHT22;32965;64.142;-21.912;2022-12-07T14:10:40;3.20;90.00
47226;DHT22;32965;64.142;-21.912;2022-12-07T14:15:50;3.20;89.60
47226;DHT22;32965;64.142;-21.912;2022-12-07T14:18:31;3.20;89.40
47226;DHT22;32965;64.142;-21.912;2022-12-07T14:23:38;3.10;89.00
47226;DHT22;32965;64.142;-21.912;2022-12-07T14:26:19;3.10;89.00
47226;DHT22;32965;64.142;-21.912;2022-12-07T14:28:46;3.10;88.80
47226;DHT22;32965;64.142;-21.912;2022-12-07T14:31:17;3.00;88.70
47226;DHT22;32965;64.142;-21.912;2022-12-07T14:33:44;3.00;88.60
47226;DHT22;32965;64.142;-21.912;2022-12-07T14:36:11;3.00;88.40
47226;DHT22;32965;64.142;-21.912;2022-12-07T14:38:37;2.90;88.20
47226;DHT22;32965;64.142;-21.912;2022-12-07T14:41:04;2.90;88.10
47226;DHT22;32965;64.142;-21.912;2022-12-07T14:43:50;2.90;88.10
47226;DHT22;32965;64.142;-21.912;2022-12-07T14:46:16;2.80;88.00
47226;DHT22;32965;64.142;-21.912;2022-12-07T14:48:42;2.80;87.90
47226;DHT22;32965;64.142;-21.912;2022-12-07T14:51:10;2.80;87.90
47226;DHT22;32965;64.142;-21.912;2022-12-07T14:53:44;2.80;87.90
47226;DHT22;32965;64.142;-21.912;2022-12-07T14:56:11;2.70;87.90
47226;DHT22;32965;64.142;-21.912;2022-12-07T14:58:37;2.70;87.90
47226;DHT22;32965;64.142;-21.912;2022-12-07T15:01:03;2.70;87.90
47226;DHT22;32965;64.142;-21.912;2022-12-07T15:03:28;2.60;87.90
47226;DHT22;32965;64.142;-21.912;2022-12-07T15:05:55;2.60;87.90
47226;DHT22;32965;64.142;-21.912;2022-12-07T15:08:21;2.60;87.80
47226;DHT22;32965;64.142;-21.912;2022-12-07T15:10:46;2.60;87.70
47226;DHT22;32965;64.142;-21.912;2022-12-07T15:13:12;2.60;87.70
47226;DHT22;32965;64.142;-21.912;2022-12-07T15:16:01;2.50;87.60
47226;DHT22;32965;64.142;-21.912;2022-12-07T15:18:26;2.50;87.90
47226;DHT22;32965;64.142;-21.912;2022-12-07T15:20:52;2.40;87.80
47226;DHT22;32965;64.142;-21.912;2022-12-07T15:23:18;2.40;87.70
47226;DHT22;32965;64.142;-21.912;2022-12-07T15:25:45;2.40;87.70
47226;DHT22;32965;64.142;-21.912;2022-12-07T15:28:12;2.40;87.60
47226;DHT22;32965;64.142;-21.912;2022-12-07T15:30:39;2.40;87.50
47226;DHT22;32965;64.142;-21.912;2022-12-07T15:33:04;2.40;87.50
47226;DHT22;32965;64.142;-21.912;2022-12-07T15:35:30;2.40;87.40
47226;DHT22;32965;64.142;-21.912;2022-12-07T15:37:56;2.40;87.40
47226;DHT22;32965;64.142;-21.912;2022-12-07T15:40:22;2.30;87.20
47226;DHT22;32965;64.142;-21.912;2022-12-07T15:42:47;2.30;87.10
47226;DHT22;32965;64.142;-21.912;2022-12-07T15:45:13;2.30;87.10
47226;DHT22;32965;64.142;-21.912;2022-12-07T15:47:43;2.20;87.00
47226;DHT22;32965;64.142;-21.912;2022-12-07T15:50:14;2.20;86.90
47226;DHT22;32965;64.142;-21.912;2022-12-07T15:52:41;2.20;86.90
47226;DHT22;32965;64.142;-21.912;2022-12-07T15:55:08;2.20;87.00
47226;DHT22;32965;64.142;-21.912;2022-12-07T15:57:36;2.10;86.90
47226;DHT22;32965;64.142;-21.912;2022-12-07T16:00:04;2.10;87.00
47226;DHT22;32965;64.142;-21.912;2022-12-07T16:02:30;2.10;87.00
47226;DHT22;32965;64.142;-21.912;2022-12-07T16:04:55;2.10;86.90
47226;DHT22;32965;64.142;-21.912;2022-12-07T16:07:22;2.10;86.80
47226;DHT22;32965;64.142;-21.912;2022-12-07T16:09:48;2.10;86.80
47226;DHT22;32965;64.142;-21.912;2022-12-07T16:12:15;2.10;86.80
47226;DHT22;32965;64.142;-21.912;2022-12-07T16:14:41;2.00;86.80
47226;DHT22;32965;64.142;-21.912;2022-12-07T16:17:08;2.00;86.70
47226;DHT22;32965;64.142;-21.912;2022-12-07T16:19:35;2.00;86.70
47226;DHT22;32965;64.142;-21.912;2022-12-07T16:22:01;2.00;86.70
47226;DHT22;32965;64.142;-21.912;2022-12-07T16:24:27;2.00;86.70
47226;DHT22;32965;64.142;-21.912;2022-12-07T16:26:54;2.00;86.70
47226;DHT22;32965;64.142;-21.912;2022-12-07T16:29:21;2.00;86.60
47226;DHT22;32965;64.142;-21.912;2022-12-07T16:31:48;2.00;86.60
47226;DHT22;32965;64.142;-21.912;2022-12-07T16:34:14;2.00;86.90
47226;DHT22;32965;64.142;-21.912;2022-12-07T16:36:40;1.90;86.50
47226;DHT22;32965;64.142;-21.912;2022-12-07T16:39:06;1.90;86.50
47226;DHT22;32965;64.142;-21.912;2022-12-07T16:41:32;1.90;86.50
47226;DHT22;32965;64.142;-21.912;2022-12-07T16:44:02;1.90;86.60
47226;DHT22;32965;64.142;-21.912;2022-12-07T16:46:28;1.90;86.60
47226;DHT22;32965;64.142;-21.912;2022-12-07T16:48:55;1.80;86.60
47226;DHT22;32965;64.142;-21.912;2022-12-07T16:51:21;1.90;86.60
47226;DHT22;32965;64.142;-21.912;2022-12-07T16:53:46;1.80;86.60
47226;DHT22;32965;64.142;-21.912;2022-12-07T16:56:14;1.80;86.60
47226;DHT22;32965;64.142;-21.912;2022-12-07T16:58:43;1.80;86.70
47226;DHT22;32965;64.142;-21.912;2022-12-07T17:01:18;1.80;86.70
47226;DHT22;32965;64.142;-21.912;2022-12-07T17:03:44;1.80;86.60
47226;DHT22;32965;64.142;-21.912;2022-12-07T17:06:18;1.80;86.60
47226;DHT22;32965;64.142;-21.912;2022-12-07T17:08:45;1.70;86.60
47226;DHT22;32965;64.142;-21.912;2022-12-07T17:11:22;1.70;86.60
47226;DHT22;32965;64.142;-21.912;2022-12-07T17:13:48;1.80;86.50
47226;DHT22;32965;64.142;-21.912;2022-12-07T17:16:32;1.70;86.40
47226;DHT22;32965;64.142;-21.912;2022-12-07T17:18:58;1.70;86.40
47226;DHT22;32965;64.142;-21.912;2022-12-07T17:21:24;1.70;86.40
47226;DHT22;32965;64.142;-21.912;2022-12-07T17:23:50;1.60;86.30
47226;DHT22;32965;64.142;-21.912;2022-12-07T17:26:19;1.60;86.30
47226;DHT22;32965;64.142;-21.912;2022-12-07T17:28:46;1.70;86.30